Time;durP1;ratioP1;P1;durP2;ratioP2;P2;SDS_P1;SDS_P2;PMS_P1;PMS_P2;Temp;Humidity;BMP_temperature;BMP_pressure;BME280_temperature;BME280_humidity;BME280_pressure;Samples;Min_cycle;Max_cycle;Signal;HPM_P1;HPM_P2
2023/03/13 00:00:48;;;;;;;;;;;3.40;99.90;;;;;;5033763;28;19955;-77
2023/03/13 00:03:14;;;;;;;;;;;3.40;99.90;;;;;;5033904;28;19909;-76
2023/03/13 00:05:40;;;;;;;;;;;3.40;99.90;;;;;;5033718;28;19986;-77
2023/03/13 00:08:05;;;;;;;;;;;3.40;99.90;;;;;;5016082;28;19909;-76
2023/03/13 00:10:31;;;;;;;;;;;3.40;99.90;;;;;;5033625;28;19920;-76
2023/03/13 00:12:56;;;;;;;;;;;3.30;99.90;;;;;;5033505;28;19919;-76
2023/03/13 00:15:22;;;;;;;;;;;3.30;99.90;;;;;;5016150;28;19914;-77
2023/03/13 00:17:47;;;;;;;;;;;3.30;99.90;;;;;;5033546;28;20361;-76
2023/03/13 00:20:16;;;;;;;;;;;3.30;99.90;;;;;;5016019;28;19978;-77
2023/03/13 00:22:41;;;;;;;;;;;3.20;99.90;;;;;;5033534;28;19909;-76
2023/03/13 00:25:07;;;;;;;;;;;3.20;99.90;;;;;;5033468;28;20295;-77
2023/03/13 00:27:33;;;;;;;;;;;3.20;99.90;;;;;;5027231;28;19913;-76
2023/03/13 00:29:59;;;;;;;;;;;3.20;99.90;;;;;;5013700;28;20328;-76
2023/03/13 00:32:24;;;;;;;;;;;3.20;99.90;;;;;;5013724;28;20400;-76
2023/03/13 00:34:50;;;;;;;;;;;3.20;99.90;;;;;;5013734;28;19951;-76
2023/03/13 00:37:15;;;;;;;;;;;3.10;99.90;;;;;;5013576;28;19916;-76
2023/03/13 00:39:41;;;;;;;;;;;3.10;99.90;;;;;;5013678;28;19914;-76
2023/03/13 00:42:06;;;;;;;;;;;3.10;99.90;;;;;;5013399;28;19914;-76
2023/03/13 00:44:32;;;;;;;;;;;3.00;99.90;;;;;;5013628;28;19979;-76
2023/03/13 00:46:58;;;;;;;;;;;3.00;99.90;;;;;;5013540;28;19913;-77
2023/03/13 00:49:23;;;;;;;;;;;3.00;99.90;;;;;;5013566;28;19921;-77
2023/03/13 00:51:49;;;;;;;;;;;3.00;99.90;;;;;;5013576;28;19914;-76
2023/03/13 00:54:14;;;;;;;;;;;2.90;99.90;;;;;;5013805;28;19948;-76
2023/03/13 00:56:40;;;;;;;;;;;2.90;99.90;;;;;;5013425;28;19924;-76
2023/03/13 00:59:05;;;;;;;;;;;2.90;99.90;;;;;;5013103;28;19922;-76
2023/03/13 01:01:32;;;;;;;;;;;2.90;99.90;;;;;;5015309;28;19916;-76
2023/03/13 01:04:00;;;;;;;;;;;2.80;99.90;;;;;;5017069;28;20321;-76
2023/03/13 01:06:27;;;;;;;;;;;2.80;99.90;;;;;;5017010;28;19917;-76
2023/03/13 01:08:53;;;;;;;;;;;2.80;99.90;;;;;;5017093;28;19913;-75
2023/03/13 01:11:20;;;;;;;;;;;2.80;99.90;;;;;;4999652;28;20396;-76
2023/03/13 01:13:46;;;;;;;;;;;2.80;99.90;;;;;;5016676;28;20258;-76
2023/03/13 01:16:13;;;;;;;;;;;2.70;99.90;;;;;;5017359;28;19913;-76
2023/03/13 01:18:40;;;;;;;;;;;2.70;99.90;;;;;;5016794;28;19932;-76
2023/03/13 01:21:06;;;;;;;;;;;2.70;99.90;;;;;;4999229;28;19914;-76
2023/03/13 01:23:31;;;;;;;;;;;2.70;99.90;;;;;;4999128;28;19913;-76
2023/03/13 01:25:57;;;;;;;;;;;2.60;99.90;;;;;;5016614;28;19910;-75
2023/03/13 01:28:23;;;;;;;;;;;2.70;99.90;;;;;;5016177;28;19909;-76
2023/03/13 01:30:49;;;;;;;;;;;2.60;99.90;;;;;;5016571;28;19909;-75
2023/03/13 01:33:15;;;;;;;;;;;2.60;99.90;;;;;;5016508;28;19909;-76
2023/03/13 01:35:41;;;;;;;;;;;2.60;99.90;;;;;;4999527;28;19941;-76
2023/03/13 01:38:06;;;;;;;;;;;2.60;99.90;;;;;;5016380;28;19917;-76
2023/03/13 01:40:38;;;;;;;;;;;2.60;99.90;;;;;;5016996;28;19940;-76
2023/03/13 01:43:11;;;;;;;;;;;2.60;99.90;;;;;;5016299;28;19928;-76
2023/03/13 01:45:55;;;;;;;;;;;2.60;99.90;;;;;;5016610;28;20000;-76
2023/03/13 01:48:22;;;;;;;;;;;2.50;99.90;;;;;;5016663;28;20377;-76
2023/03/13 01:50:48;;;;;;;;;;;2.50;99.90;;;;;;5016519;28;19909;-76
2023/03/13 01:53:13;;;;;;;;;;;2.40;99.90;;;;;;5016479;28;19923;-76
2023/03/13 01:55:39;;;;;;;;;;;2.40;99.90;;;;;;5016099;28;20008;-77
2023/03/13 01:58:04;;;;;;;;;;;2.40;99.90;;;;;;4998135;28;19930;-76
2023/03/13 02:00:32;;;;;;;;;;;2.40;99.90;;;;;;5016327;28;20284;-76
2023/03/13 02:03:02;;;;;;;;;;;2.40;99.90;;;;;;5015955;28;19910;-76
2023/03/13 02:05:29;;;;;;;;;;;2.40;99.90;;;;;;5015819;28;20484;-76
2023/03/13 02:08:00;;;;;;;;;;;2.40;99.90;;;;;;4998199;28;19988;-76
2023/03/13 02:10:26;;;;;;;;;;;2.40;99.90;;;;;;5015876;28;19953;-76
2023/03/13 02:12:52;;;;;;;;;;;2.30;99.90;;;;;;5014967;28;20047;-76
2023/03/13 02:15:19;;;;;;;;;;;2.30;99.90;;;;;;5016092;28;19957;-76
2023/03/13 02:17:46;;;;;;;;;;;2.30;99.90;;;;;;5015609;28;19910;-76
2023/03/13 02:20:12;;;;;;;;;;;2.20;99.90;;;;;;5015640;28;19917;-76
2023/03/13 02:22:44;;;;;;;;;;;2.20;99.90;;;;;;4997962;28;19917;-76
2023/03/13 02:25:10;;;;;;;;;;;2.20;99.90;;;;;;5015551;28;20385;-76
2023/03/13 02:27:35;;;;;;;;;;;2.20;99.90;;;;;;5015101;28;19909;-76
2023/03/13 02:30:02;;;;;;;;;;;2.20;99.90;;;;;;4997767;28;19999;-76
2023/03/13 02:32:29;;;;;;;;;;;2.20;99.90;;;;;;5015370;28;19913;-76
2023/03/13 02:35:01;;;;;;;;;;;2.30;99.90;;;;;;4997813;28;20285;-76
2023/03/13 02:37:28;;;;;;;;;;;2.30;99.90;;;;;;5015523;28;19909;-76
2023/03/13 02:39:54;;;;;;;;;;;2.30;99.90;;;;;;5015844;28;19913;-76
2023/03/13 02:42:21;;;;;;;;;;;2.30;99.90;;;;;;5015004;28;19918;-77
2023/03/13 02:44:46;;;;;;;;;;;2.40;99.90;;;;;;5015145;28;19910;-77
2023/03/13 02:47:16;;;;;;;;;;;2.40;99.90;;;;;;5015120;28;19913;-76
2023/03/13 02:49:42;;;;;;;;;;;2.40;99.90;;;;;;5015243;28;20000;-76
2023/03/13 02:52:07;;;;;;;;;;;2.40;99.90;;;;;;5015148;28;19995;-76
2023/03/13 02:54:35;;;;;;;;;;;2.40;99.90;;;;;;5015023;28;19918;-76
2023/03/13 02:57:01;;;;;;;;;;;2.40;99.90;;;;;;5014934;28;19924;-76
2023/03/13 02:59:27;;;;;;;;;;;2.40;99.90;;;;;;5014736;28;19953;-76
2023/03/13 03:01:53;;;;;;;;;;;2.40;99.90;;;;;;5014883;28;19953;-76
2023/03/13 03:04:22;;;;;;;;;;;2.40;99.90;;;;;;4997193;28;19913;-76
2023/03/13 03:06:48;;;;;;;;;;;2.50;99.90;;;;;;5014978;28;19937;-76
2023/03/13 03:09:14;;;;;;;;;;;2.40;99.90;;;;;;5014650;28;20407;-76
2023/03/13 03:11:39;;;;;;;;;;;2.40;99.90;;;;;;5014709;28;19945;-76
2023/03/13 03:14:05;;;;;;;;;;;2.40;99.90;;;;;;4996862;28;19957;-76
2023/03/13 03:16:30;;;;;;;;;;;2.40;99.90;;;;;;5014648;28;19913;-76
2023/03/13 03:18:56;;;;;;;;;;;2.30;99.90;;;;;;5014540;28;19913;-76
2023/03/13 03:21:22;;;;;;;;;;;2.30;99.90;;;;;;5014622;28;19909;-76
2023/03/13 03:23:48;;;;;;;;;;;2.30;99.90;;;;;;5014387;28;19955;-77
2023/03/13 03:26:14;;;;;;;;;;;2.20;99.90;;;;;;4980711;28;20378;-77
2023/03/13 03:28:39;;;;;;;;;;;2.20;99.90;;;;;;5013998;28;19918;-77
2023/03/13 03:31:06;;;;;;;;;;;2.20;99.90;;;;;;4996887;28;19913;-76
2023/03/13 03:33:32;;;;;;;;;;;2.10;99.90;;;;;;5014646;28;19917;-76
2023/03/13 03:35:58;;;;;;;;;;;2.10;99.90;;;;;;5014305;28;19909;-76
2023/03/13 03:38:24;;;;;;;;;;;2.00;99.90;;;;;;5014843;28;20281;-76
2023/03/13 03:40:49;;;;;;;;;;;1.90;99.90;;;;;;5014288;28;19913;-76
2023/03/13 03:43:15;;;;;;;;;;;1.90;99.90;;;;;;5014018;28;19920;-76
2023/03/13 03:45:40;;;;;;;;;;;1.90;99.90;;;;;;5014218;28;19920;-77
2023/03/13 03:48:06;;;;;;;;;;;1.90;99.90;;;;;;4996558;28;19977;-76
2023/03/13 03:50:31;;;;;;;;;;;2.00;99.90;;;;;;5014115;28;20361;-76
2023/03/13 03:52:57;;;;;;;;;;;2.00;99.90;;;;;;5014127;28;20320;-76
2023/03/13 03:55:22;;;;;;;;;;;1.90;99.90;;;;;;5014175;28;19914;-76
2023/03/13 03:57:48;;;;;;;;;;;1.90;99.90;;;;;;5013615;28;20020;-76
2023/03/13 04:00:14;;;;;;;;;;;1.90;99.90;;;;;;5014050;28;19924;-76
2023/03/13 04:02:41;;;;;;;;;;;1.90;99.90;;;;;;5014010;28;19924;-76
2023/03/13 04:05:06;;;;;;;;;;;1.80;99.90;;;;;;5013992;28;19913;-76
2023/03/13 04:07:32;;;;;;;;;;;1.80;99.90;;;;;;5013934;28;20334;-76
2023/03/13 04:09:57;;;;;;;;;;;1.80;99.90;;;;;;5013894;28;19956;-76
2023/03/13 04:12:23;;;;;;;;;;;1.80;99.90;;;;;;5013729;28;19917;-76
2023/03/13 04:14:48;;;;;;;;;;;1.80;99.90;;;;;;4995994;28;20365;-76
2023/03/13 04:17:14;;;;;;;;;;;1.80;99.90;;;;;;5013886;28;19914;-76
2023/03/13 04:19:39;;;;;;;;;;;1.80;99.90;;;;;;5014293;28;19914;-76
2023/03/13 04:22:05;;;;;;;;;;;1.80;99.90;;;;;;5013815;28;19914;-76
2023/03/13 04:24:31;;;;;;;;;;;1.80;99.90;;;;;;5013833;28;20384;-76
2023/03/13 04:26:56;;;;;;;;;;;1.80;99.90;;;;;;4996117;28;19914;-77
2023/03/13 04:29:22;;;;;;;;;;;1.80;99.90;;;;;;5013640;28;20373;-76
2023/03/13 04:31:47;;;;;;;;;;;1.80;99.90;;;;;;4996567;28;19913;-78
2023/03/13 04:34:13;;;;;;;;;;;1.70;99.90;;;;;;5013103;28;19918;-77
2023/03/13 04:36:38;;;;;;;;;;;1.70;99.90;;;;;;5015889;28;19910;-76
2023/03/13 04:39:04;;;;;;;;;;;1.60;99.90;;;;;;5017511;28;19913;-76
2023/03/13 04:41:30;;;;;;;;;;;1.60;99.90;;;;;;5018081;28;19914;-76
2023/03/13 04:43:55;;;;;;;;;;;1.60;99.90;;;;;;4999596;28;19984;-76
2023/03/13 04:46:21;;;;;;;;;;;1.60;99.90;;;;;;5017513;28;19964;-76
2023/03/13 04:48:46;;;;;;;;;;;1.60;99.90;;;;;;5016773;28;20373;-76
2023/03/13 04:51:12;;;;;;;;;;;1.60;99.90;;;;;;5017616;28;20269;-76
2023/03/13 04:53:37;;;;;;;;;;;1.60;99.90;;;;;;5017162;28;19920;-75
2023/03/13 04:56:03;;;;;;;;;;;1.60;99.90;;;;;;5017232;28;19914;-76
2023/03/13 04:58:29;;;;;;;;;;;1.60;99.90;;;;;;4999341;28;20348;-76
2023/03/13 05:00:55;;;;;;;;;;;1.60;99.90;;;;;;4999642;28;19914;-76
2023/03/13 05:03:21;;;;;;;;;;;1.60;99.90;;;;;;4983423;28;20275;-75
2023/03/13 05:05:47;;;;;;;;;;;1.60;99.90;;;;;;5017623;28;19921;-76
2023/03/13 05:08:13;;;;;;;;;;;1.60;99.90;;;;;;5016861;28;19909;-76
2023/03/13 05:10:40;;;;;;;;;;;1.60;99.90;;;;;;4999473;28;20380;-75
2023/03/13 05:13:06;;;;;;;;;;;1.50;99.90;;;;;;5016960;28;19960;-76
2023/03/13 05:15:31;;;;;;;;;;;1.50;99.90;;;;;;5016892;28;19914;-76
2023/03/13 05:17:57;;;;;;;;;;;1.50;99.90;;;;;;5016759;28;20263;-75
2023/03/13 05:20:22;;;;;;;;;;;1.50;99.90;;;;;;5016826;28;19960;-76
2023/03/13 05:22:48;;;;;;;;;;;1.40;99.90;;;;;;5017123;28;19916;-76
2023/03/13 05:25:14;;;;;;;;;;;1.50;99.90;;;;;;5016660;28;19918;-76
2023/03/13 05:27:39;;;;;;;;;;;1.50;99.90;;;;;;4999001;28;19924;-76
2023/03/13 05:30:05;;;;;;;;;;;1.50;99.90;;;;;;5016239;28;19930;-75
2023/03/13 05:32:31;;;;;;;;;;;1.50;99.90;;;;;;4982990;28;19917;-76
2023/03/13 05:34:56;;;;;;;;;;;1.50;99.90;;;;;;5016539;28;20395;-75
2023/03/13 05:37:22;;;;;;;;;;;1.50;99.90;;;;;;5016393;28;19909;-75
2023/03/13 05:39:47;;;;;;;;;;;1.40;99.90;;;;;;5016981;28;19920;-75
2023/03/13 05:42:13;;;;;;;;;;;1.40;99.90;;;;;;5016344;28;19917;-76
2023/03/13 05:44:39;;;;;;;;;;;1.40;99.90;;;;;;5016079;28;19917;-75
2023/03/13 05:47:04;;;;;;;;;;;1.40;99.90;;;;;;5015451;28;19949;-76
2023/03/13 05:49:30;;;;;;;;;;;1.50;99.90;;;;;;5016422;28;19914;-76
2023/03/13 05:51:55;;;;;;;;;;;1.50;99.90;;;;;;5016205;28;19941;-75
2023/03/13 05:54:21;;;;;;;;;;;1.50;99.90;;;;;;5016137;28;19914;-75
2023/03/13 05:56:49;;;;;;;;;;;1.50;99.90;;;;;;5015969;28;19917;-76
2023/03/13 05:59:14;;;;;;;;;;;1.50;99.90;;;;;;5016464;28;20060;-76
2023/03/13 06:01:40;;;;;;;;;;;1.50;99.90;;;;;;5016262;28;20004;-76
2023/03/13 06:04:06;;;;;;;;;;;1.40;99.90;;;;;;5015996;28;19909;-76
2023/03/13 06:06:31;;;;;;;;;;;1.40;99.90;;;;;;5015945;28;20280;-76
2023/03/13 06:08:57;;;;;;;;;;;1.40;99.90;;;;;;5015689;28;19921;-75
2023/03/13 06:11:22;;;;;;;;;;;1.50;99.90;;;;;;5015800;28;19910;-75
2023/03/13 06:13:50;;;;;;;;;;;1.50;99.90;;;;;;5015750;28;20000;-76
2023/03/13 06:16:15;;;;;;;;;;;1.50;99.90;;;;;;5015808;28;19917;-75
2023/03/13 06:18:41;;;;;;;;;;;1.50;99.90;;;;;;5015681;28;19913;-76
2023/03/13 06:21:06;;;;;;;;;;;1.50;99.90;;;;;;5015628;28;19913;-76
2023/03/13 06:23:32;;;;;;;;;;;1.40;99.90;;;;;;5015884;28;19913;-76
2023/03/13 06:25:59;;;;;;;;;;;1.50;99.90;;;;;;5015602;28;20043;-76
2023/03/13 06:28:24;;;;;;;;;;;1.50;99.90;;;;;;5015138;28;19914;-76
2023/03/13 06:30:50;;;;;;;;;;;1.50;99.90;;;;;;5015472;28;19964;-76
2023/03/13 06:33:15;;;;;;;;;;;1.50;99.90;;;;;;5015460;28;19913;-75
2023/03/13 06:35:42;;;;;;;;;;;1.50;99.90;;;;;;5015378;28;19960;-76
2023/03/13 06:38:08;;;;;;;;;;;1.50;99.90;;;;;;5015382;28;19913;-76
2023/03/13 06:40:33;;;;;;;;;;;1.50;99.90;;;;;;5015326;28;20389;-75
2023/03/13 06:42:59;;;;;;;;;;;1.50;99.90;;;;;;5014977;28;19947;-76
2023/03/13 06:45:25;;;;;;;;;;;1.50;99.90;;;;;;5015213;28;20332;-75
2023/03/13 06:47:51;;;;;;;;;;;1.60;99.90;;;;;;5015095;28;19909;-76
2023/03/13 06:50:16;;;;;;;;;;;1.60;99.90;;;;;;4997466;28;20328;-76
2023/03/13 06:52:42;;;;;;;;;;;1.60;99.90;;;;;;5015068;28;19964;-76
2023/03/13 06:55:08;;;;;;;;;;;1.60;99.90;;;;;;5015043;28;19963;-75
2023/03/13 06:57:34;;;;;;;;;;;1.60;99.90;;;;;;5014755;28;20023;-76
2023/03/13 06:59:59;;;;;;;;;;;1.60;99.90;;;;;;5014517;28;19921;-76
2023/03/13 07:02:25;;;;;;;;;;;1.70;99.90;;;;;;4997312;28;19909;-76
2023/03/13 07:04:50;;;;;;;;;;;1.70;99.90;;;;;;5015169;28;19913;-76
2023/03/13 07:07:16;;;;;;;;;;;1.80;99.90;;;;;;5014985;28;20313;-76
2023/03/13 07:09:41;;;;;;;;;;;1.90;99.90;;;;;;5014695;28;19959;-76
2023/03/13 07:12:07;;;;;;;;;;;1.90;99.90;;;;;;5015001;28;19914;-76
2023/03/13 07:14:33;;;;;;;;;;;2.00;99.90;;;;;;4997138;28;19921;-76
2023/03/13 07:16:58;;;;;;;;;;;2.10;99.90;;;;;;5014797;28;19909;-76
2023/03/13 07:19:26;;;;;;;;;;;2.20;99.90;;;;;;5014642;28;20012;-76
2023/03/13 07:21:51;;;;;;;;;;;2.20;99.90;;;;;;5014630;28;19914;-75
2023/03/13 07:24:17;;;;;;;;;;;2.30;99.90;;;;;;5014823;28;20407;-76
2023/03/13 07:26:43;;;;;;;;;;;2.30;99.90;;;;;;5015014;28;19917;-76
2023/03/13 07:29:09;;;;;;;;;;;2.40;99.90;;;;;;4996818;28;19920;-76
2023/03/13 07:31:34;;;;;;;;;;;2.40;99.90;;;;;;5014746;28;20357;-76
2023/03/13 07:34:00;;;;;;;;;;;2.40;99.90;;;;;;5014405;28;19914;-76
2023/03/13 07:36:25;;;;;;;;;;;2.50;99.90;;;;;;5014653;28;19914;-76
2023/03/13 07:38:51;;;;;;;;;;;2.60;99.90;;;;;;5014268;28;19968;-76
2023/03/13 07:41:17;;;;;;;;;;;2.60;99.90;;;;;;5014318;28;19921;-76
2023/03/13 07:43:43;;;;;;;;;;;2.70;99.90;;;;;;5014038;28;19955;-76
2023/03/13 07:46:13;;;;;;;;;;;2.70;99.90;;;;;;5014596;28;20317;-76
2023/03/13 07:48:40;;;;;;;;;;;2.80;99.90;;;;;;5014047;28;19963;-76
2023/03/13 07:51:07;;;;;;;;;;;2.90;99.90;;;;;;5014198;28;19920;-76
2023/03/13 07:53:32;;;;;;;;;;;2.90;99.90;;;;;;5014406;28;19910;-76
2023/03/13 07:55:59;;;;;;;;;;;3.00;99.90;;;;;;5014682;28;19960;-76
2023/03/13 07:58:25;;;;;;;;;;;3.10;99.90;;;;;;5013601;28;19929;-75
2023/03/13 08:00:51;;;;;;;;;;;3.10;99.90;;;;;;5013861;28;19909;-76
2023/03/13 08:03:17;;;;;;;;;;;3.20;99.90;;;;;;5014045;28;19921;-76
2023/03/13 08:05:42;;;;;;;;;;;3.20;99.90;;;;;;5014021;28;20443;-75
2023/03/13 08:08:08;;;;;;;;;;;3.20;99.90;;;;;;4996534;28;19917;-75
2023/03/13 08:10:34;;;;;;;;;;;3.20;99.90;;;;;;5014858;28;19921;-75
2023/03/13 08:12:59;;;;;;;;;;;3.20;99.90;;;;;;5018097;28;20258;-75
2023/03/13 08:15:25;;;;;;;;;;;3.30;99.90;;;;;;5017799;28;20373;-75
2023/03/13 08:17:51;;;;;;;;;;;3.40;99.90;;;;;;5017975;28;19913;-75
2023/03/13 08:20:17;;;;;;;;;;;3.40;99.90;;;;;;5000311;28;19945;-75
2023/03/13 08:22:45;;;;;;;;;;;3.50;99.90;;;;;;5018206;28;20377;-75
2023/03/13 08:25:14;;;;;;;;;;;3.60;99.90;;;;;;5000199;28;19910;-75
2023/03/13 08:27:39;;;;;;;;;;;3.70;99.90;;;;;;5010924;28;19960;-75
2023/03/13 08:30:05;;;;;;;;;;;3.80;99.90;;;;;;4980459;28;19961;-75
2023/03/13 08:32:34;;;;;;;;;;;3.80;99.90;;;;;;4998086;28;20317;-75
2023/03/13 08:35:00;;;;;;;;;;;3.90;99.90;;;;;;4998210;28;19964;-76
2023/03/13 08:37:25;;;;;;;;;;;4.00;99.90;;;;;;4980452;28;19913;-75
2023/03/13 08:39:53;;;;;;;;;;;4.10;99.90;;;;;;4980486;28;20357;-75
2023/03/13 08:42:18;;;;;;;;;;;4.10;99.90;;;;;;4997925;28;19921;-75
2023/03/13 08:44:44;;;;;;;;;;;4.20;99.90;;;;;;4997936;28;19914;-75
2023/03/13 08:47:10;;;;;;;;;;;4.20;99.90;;;;;;4997833;28;20292;-75
2023/03/13 08:49:35;;;;;;;;;;;4.20;99.90;;;;;;4980260;28;19913;-75
2023/03/13 08:52:02;;;;;;;;;;;4.30;99.90;;;;;;4998062;28;20282;-75
2023/03/13 08:54:28;;;;;;;;;;;4.20;99.90;;;;;;4998258;28;19917;-75
2023/03/13 08:56:53;;;;;;;;;;;4.30;99.90;;;;;;4997474;28;19922;-76
2023/03/13 08:59:19;;;;;;;;;;;4.30;99.90;;;;;;4963948;28;19917;-75
2023/03/13 09:01:45;;;;;;;;;;;4.40;99.90;;;;;;4997819;28;19964;-75
2023/03/13 09:04:10;;;;;;;;;;;4.50;99.90;;;;;;4980189;28;19914;-75
2023/03/13 09:06:36;;;;;;;;;;;4.50;99.90;;;;;;4979954;28;19921;-76
2023/03/13 09:09:03;;;;;;;;;;;4.60;99.90;;;;;;4997384;28;19964;-75
2023/03/13 09:11:28;;;;;;;;;;;4.70;99.90;;;;;;4997628;28;19964;-75
2023/03/13 09:13:55;;;;;;;;;;;4.80;99.90;;;;;;4979695;28;19921;-76
2023/03/13 09:16:21;;;;;;;;;;;4.90;99.90;;;;;;4997307;28;19933;-75
2023/03/13 09:18:47;;;;;;;;;;;5.00;99.90;;;;;;4997239;28;19920;-76
2023/03/13 09:21:14;;;;;;;;;;;5.10;99.90;;;;;;4997144;28;20377;-76
2023/03/13 09:23:39;;;;;;;;;;;5.10;99.90;;;;;;4997487;28;19956;-75
2023/03/13 09:26:05;;;;;;;;;;;5.20;99.90;;;;;;4979675;28;19914;-75
2023/03/13 09:28:31;;;;;;;;;;;5.30;99.90;;;;;;5010407;28;20258;-76
2023/03/13 09:31:05;;;;;;;;;;;5.30;99.90;;;;;;5016634;28;19913;-76
2023/03/13 09:33:30;;;;;;;;;;;5.40;99.90;;;;;;5016660;28;19909;-75
2023/03/13 09:35:56;;;;;;;;;;;5.40;99.90;;;;;;5016526;28;20293;-76
2023/03/13 09:38:21;;;;;;;;;;;5.40;99.90;;;;;;4998858;28;19914;-75
2023/03/13 09:40:48;;;;;;;;;;;5.40;99.90;;;;;;5016763;28;19964;-75
2023/03/13 09:43:25;;;;;;;;;;;5.50;99.90;;;;;;5016431;28;20461;-75
2023/03/13 09:45:53;;;;;;;;;;;5.50;99.90;;;;;;5016155;28;20007;-75
2023/03/13 09:48:39;;;;;;;;;;;5.50;99.90;;;;;;5016443;28;19921;-75
2023/03/13 09:51:16;;;;;;;;;;;5.60;99.90;;;;;;4998218;28;19924;-75
2023/03/13 09:53:48;;;;;;;;;;;5.60;99.90;;;;;;5016244;28;19909;-75
2023/03/13 09:56:19;;;;;;;;;;;5.70;99.90;;;;;;5016051;28;20291;-75
2023/03/13 09:58:53;;;;;;;;;;;5.70;99.90;;;;;;5015767;28;20004;-75
2023/03/13 10:01:21;;;;;;;;;;;5.80;99.90;;;;;;5016591;28;20246;-76
2023/03/13 10:04:07;;;;;;;;;;;5.80;99.90;;;;;;5016029;28;19910;-76
2023/03/13 10:06:35;;;;;;;;;;;5.80;99.90;;;;;;5015513;28;19916;-75
2023/03/13 10:09:01;;;;;;;;;;;5.90;99.90;;;;;;5015872;28;20362;-75
2023/03/13 10:11:46;;;;;;;;;;;5.90;99.90;;;;;;5016445;28;19921;-76
2023/03/13 10:14:15;;;;;;;;;;;5.90;99.90;;;;;;5015234;28;20358;-75
2023/03/13 10:16:44;;;;;;;;;;;5.90;99.90;;;;;;5016010;28;20334;-76
2023/03/13 10:19:14;;;;;;;;;;;6.00;99.90;;;;;;5015873;28;20342;-76
2023/03/13 10:21:41;;;;;;;;;;;6.10;99.90;;;;;;5015672;28;19960;-75
2023/03/13 10:24:29;;;;;;;;;;;6.20;99.90;;;;;;5015670;28;19910;-76
2023/03/13 10:26:56;;;;;;;;;;;6.30;99.90;;;;;;5010040;28;19910;-76
2023/03/13 10:29:23;;;;;;;;;;;6.30;99.90;;;;;;5015227;28;19913;-76
2023/03/13 10:31:54;;;;;;;;;;;6.30;99.90;;;;;;5015783;28;20316;-76
2023/03/13 10:34:20;;;;;;;;;;;6.30;99.90;;;;;;5014773;28;19913;-75
2023/03/13 10:36:47;;;;;;;;;;;6.30;99.90;;;;;;5015302;28;20008;-76
2023/03/13 10:39:20;;;;;;;;;;;6.40;99.90;;;;;;5015354;28;19917;-76
2023/03/13 10:41:46;;;;;;;;;;;6.40;99.90;;;;;;5015272;28;20426;-76
2023/03/13 10:44:20;;;;;;;;;;;6.40;99.90;;;;;;5015063;28;20380;-75
2023/03/13 10:46:46;;;;;;;;;;;6.50;99.90;;;;;;5015435;28;19909;-77
2023/03/13 10:49:14;;;;;;;;;;;6.60;99.90;;;;;;5015121;28;19921;-76
2023/03/13 10:51:43;;;;;;;;;;;6.70;99.90;;;;;;5015141;28;20048;-76
2023/03/13 10:54:14;;;;;;;;;;;6.90;99.90;;;;;;5015089;28;19996;-76
2023/03/13 10:56:40;;;;;;;;;;;7.00;99.90;;;;;;4997336;28;19920;-77
2023/03/13 10:59:18;;;;;;;;;;;7.10;99.90;;;;;;4996158;28;19922;-76
2023/03/13 11:01:44;;;;;;;;;;;7.20;99.90;;;;;;4977903;28;20000;-76
2023/03/13 11:04:18;;;;;;;;;;;7.30;99.90;;;;;;4977862;28;19957;-76
2023/03/13 11:06:49;;;;;;;;;;;7.50;99.90;;;;;;4995199;28;19958;-76
2023/03/13 11:09:16;;;;;;;;;;;7.60;99.90;;;;;;4977715;28;19917;-75
2023/03/13 11:11:52;;;;;;;;;;;7.80;99.90;;;;;;4995178;28;19910;-76
2023/03/13 11:14:19;;;;;;;;;;;7.90;99.90;;;;;;4977491;28;20001;-76
2023/03/13 11:16:46;;;;;;;;;;;7.90;99.90;;;;;;4995355;28;19910;-76
2023/03/13 11:19:12;;;;;;;;;;;8.00;99.90;;;;;;4977573;28;20264;-75
2023/03/13 11:21:43;;;;;;;;;;;8.20;99.90;;;;;;4995016;28;19917;-75
2023/03/13 11:24:14;;;;;;;;;;;8.40;99.90;;;;;;4995021;28;19953;-75
2023/03/13 11:27:02;;;;;;;;;;;8.50;99.90;;;;;;4995306;28;19932;-76
2023/03/13 11:29:33;;;;;;;;;;;8.70;99.90;;;;;;4994624;28;19910;-76
2023/03/13 11:32:01;;;;;;;;;;;8.90;99.90;;;;;;4995282;28;19956;-76
2023/03/13 11:34:39;;;;;;;;;;;9.00;99.90;;;;;;4995374;28;20027;-75
2023/03/13 11:37:08;;;;;;;;;;;9.10;99.90;;;;;;4994864;28;19910;-75
2023/03/13 11:39:40;;;;;;;;;;;9.30;99.90;;;;;;4994804;28;19917;-75
2023/03/13 11:42:21;;;;;;;;;;;9.30;99.90;;;;;;4977361;28;20281;-75
2023/03/13 11:44:46;;;;;;;;;;;9.40;99.90;;;;;;4994415;28;19917;-75
2023/03/13 11:47:17;;;;;;;;;;;9.40;99.90;;;;;;4994826;28;20278;-76
2023/03/13 11:49:43;;;;;;;;;;;9.50;99.90;;;;;;4977223;28;19921;-76
2023/03/13 11:52:15;;;;;;;;;;;9.50;99.90;;;;;;4995079;28;19910;-76
2023/03/13 11:54:59;;;;;;;;;;;9.60;99.90;;;;;;4977137;28;19914;-75
2023/03/13 11:57:29;;;;;;;;;;;9.60;99.90;;;;;;5004601;28;20527;-77
2023/03/13 12:00:14;;;;;;;;;;;9.80;99.90;;;;;;5034065;28;20035;-76
2023/03/13 12:02:43;;;;;;;;;;;9.90;99.90;;;;;;5016131;28;20368;-76
2023/03/13 12:05:11;;;;;;;;;;;10.00;99.90;;;;;;5033899;28;19909;-76
2023/03/13 12:07:39;;;;;;;;;;;10.20;99.90;;;;;;5033743;28;19932;-76
2023/03/13 12:10:15;;;;;;;;;;;10.40;99.90;;;;;;5033694;28;19920;-76
2023/03/13 12:12:43;;;;;;;;;;;10.50;99.90;;;;;;5033673;28;19917;-77
2023/03/13 12:15:17;;;;;;;;;;;10.60;99.90;;;;;;5033286;28;19909;-77
2023/03/13 12:17:56;;;;;;;;;;;10.70;99.90;;;;;;5033515;28;19910;-76
2023/03/13 12:20:27;;;;;;;;;;;10.80;99.90;;;;;;5033811;28;20326;-76
2023/03/13 12:23:05;;;;;;;;;;;10.90;99.90;;;;;;5033944;28;20003;-76
2023/03/13 12:25:33;;;;;;;;;;;11.10;99.90;;;;;;5033555;28;19909;-77
2023/03/13 12:28:06;;;;;;;;;;;11.10;99.90;;;;;;5023915;28;19910;-78
2023/03/13 12:30:36;;;;;;;;;;;11.20;99.90;;;;;;5013771;28;19956;-77
2023/03/13 12:33:12;;;;;;;;;;;11.30;99.90;;;;;;5014344;28;20364;-76
2023/03/13 12:35:40;;;;;;;;;;;11.40;99.90;;;;;;5013793;28;20358;-77
2023/03/13 12:38:14;;;;;;;;;;;11.50;99.90;;;;;;5014011;28;19910;-77
2023/03/13 12:40:40;;;;;;;;;;;11.60;99.90;;;;;;5012886;28;20397;-77
2023/03/13 12:43:15;;;;;;;;;;;11.60;99.90;;;;;;5012623;28;19910;-77
2023/03/13 12:45:50;;;;;;;;;;;11.70;99.90;;;;;;5012386;28;19933;-78
2023/03/13 12:48:20;;;;;;;;;;;11.80;99.90;;;;;;5012502;28;19941;-77
2023/03/13 12:50:49;;;;;;;;;;;12.00;99.90;;;;;;5012514;28;19921;-78
2023/03/13 12:53:36;;;;;;;;;;;12.20;99.90;;;;;;4994918;28;19913;-78
2023/03/13 12:56:19;;;;;;;;;;;12.40;99.90;;;;;;4995840;28;20004;-77
2023/03/13 12:58:52;;;;;;;;;;;12.60;99.90;;;;;;5032832;28;19921;-77
2023/03/13 13:01:27;;;;;;;;;;;12.80;99.90;;;;;;5036774;28;19916;-77
2023/03/13 13:03:57;;;;;;;;;;;12.90;99.20;;;;;;5037275;28;19916;-77
2023/03/13 13:06:23;;;;;;;;;;;12.90;93.50;;;;;;5019209;28;19913;-77
2023/03/13 13:08:52;;;;;;;;;;;12.90;92.80;;;;;;5018931;28;19909;-77
2023/03/13 13:11:32;;;;;;;;;;;12.90;93.90;;;;;;5036806;28;19910;-77
2023/03/13 13:13:59;;;;;;;;;;;12.80;94.50;;;;;;5036729;28;19909;-77
2023/03/13 13:16:25;;;;;;;;;;;12.80;95.90;;;;;;5036457;28;20377;-77
2023/03/13 13:18:51;;;;;;;;;;;12.70;98.30;;;;;;5036868;28;20353;-77
2023/03/13 13:21:20;;;;;;;;;;;12.80;98.20;;;;;;5036625;28;19921;-77
2023/03/13 13:23:46;;;;;;;;;;;12.80;99.90;;;;;;5036592;28;19910;-77
2023/03/13 13:26:35;;;;;;;;;;;12.80;98.10;;;;;;5018718;28;19916;-76
2023/03/13 13:29:21;;;;;;;;;;;12.90;99.70;;;;;;5018505;28;20031;-76
2023/03/13 13:31:49;;;;;;;;;;;12.90;99.90;;;;;;4969386;28;19909;-76
2023/03/13 13:34:41;;;;;;;;;;;12.90;99.60;;;;;;5016567;28;19910;-76
2023/03/13 13:37:16;;;;;;;;;;;13.00;99.70;;;;;;4989512;28;19917;-77
2023/03/13 13:39:46;;;;;;;;;;;13.00;99.90;;;;;;5017034;28;19913;-77
2023/03/13 13:42:30;;;;;;;;;;;13.10;99.40;;;;;;5016564;28;19910;-76
2023/03/13 13:45:02;;;;;;;;;;;13.20;99.90;;;;;;5016174;28;19913;-77
2023/03/13 13:47:28;;;;;;;;;;;13.30;99.90;;;;;;4998703;28;20021;-77
2023/03/13 13:49:58;;;;;;;;;;;13.30;98.90;;;;;;5016254;28;20029;-77
2023/03/13 13:52:33;;;;;;;;;;;13.40;97.70;;;;;;5016627;28;19914;-77
2023/03/13 13:54:59;;;;;;;;;;;13.40;97.20;;;;;;5016220;28;19909;-77
2023/03/13 13:57:34;;;;;;;;;;;13.40;95.70;;;;;;4998347;28;19987;-77
2023/03/13 14:00:15;;;;;;;;;;;13.50;96.00;;;;;;5016057;28;19910;-77
2023/03/13 14:02:56;;;;;;;;;;;13.60;96.80;;;;;;4998727;28;20028;-76
2023/03/13 14:05:21;;;;;;;;;;;13.70;98.10;;;;;;5016173;28;19967;-77
2023/03/13 14:08:02;;;;;;;;;;;13.80;98.10;;;;;;5015829;28;19909;-77
2023/03/13 14:10:34;;;;;;;;;;;14.00;97.70;;;;;;5015605;28;19919;-77
2023/03/13 14:13:00;;;;;;;;;;;14.10;99.00;;;;;;5013655;28;20000;-77
2023/03/13 14:15:30;;;;;;;;;;;14.20;99.60;;;;;;5015738;28;19909;-77
2023/03/13 14:17:55;;;;;;;;;;;14.40;98.20;;;;;;5016023;28;20289;-77
2023/03/13 14:20:51;;;;;;;;;;;14.50;97.20;;;;;;5015628;28;19996;-77
2023/03/13 14:23:27;;;;;;;;;;;14.60;97.90;;;;;;5007122;28;19918;-77
2023/03/13 14:25:53;;;;;;;;;;;14.80;95.90;;;;;;5015876;28;19964;-77
2023/03/13 14:28:23;;;;;;;;;;;14.90;96.00;;;;;;5002438;28;19917;-77
2023/03/13 14:30:50;;;;;;;;;;;15.00;97.60;;;;;;4995600;28;19960;-77
2023/03/13 14:33:17;;;;;;;;;;;15.10;97.20;;;;;;5001140;28;21609;-77